sensor_id;sensor_type;location;lat;lon;timestamp;pressure;altitude;pressure_sealevel;temperature;humidity
7478;BME280;3780;42.424;25.636;2022-09-09T00:00:24;99337.31;;;18.17;nan
7478;BME280;3780;42.424;25.636;2022-09-09T00:03:18;99381.09;;;18.39;nan
7478;BME280;3780;42.424;25.636;2022-09-09T00:06:17;99389.28;;;18.39;nan
7478;BME280;3780;42.424;25.636;2022-09-09T00:11:41;99389.28;;;18.39;nan
7478;BME280;3780;42.424;25.636;2022-09-09T00:14:15;99385.88;;;18.34;nan
7478;BME280;3780;42.424;25.636;2022-09-09T00:16:48;99383.34;;;18.24;nan
7478;BME280;3780;42.424;25.636;2022-09-09T00:22:04;99388.38;;;18.30;nan
7478;BME280;3780;42.424;25.636;2022-09-09T00:24:43;99363.19;;;18.06;nan
7478;BME280;3780;42.424;25.636;2022-09-09T00:27:21;99396.38;;;18.27;nan
7478;BME280;3780;42.424;25.636;2022-09-09T00:30:22;99325.97;;;17.83;nan
7478;BME280;3780;42.424;25.636;2022-09-09T00:32:52;99398.38;;;18.21;nan
7478;BME280;3780;42.424;25.636;2022-09-09T00:35:32;99390.31;;;18.16;nan
7478;BME280;3780;42.424;25.636;2022-09-09T00:38:14;99387.47;;;18.07;nan
7478;BME280;3780;42.424;25.636;2022-09-09T00:40:58;99386.72;;;18.02;nan
7478;BME280;3780;42.424;25.636;2022-09-09T00:43:29;99389.38;;;18.07;nan
7478;BME280;3780;42.424;25.636;2022-09-09T00:59:52;99371.34;;;17.92;nan
7478;BME280;3780;42.424;25.636;2022-09-09T01:02:32;99375.50;;;18.03;nan
7478;BME280;3780;42.424;25.636;2022-09-09T01:05:27;99372.59;;;18.00;nan
7478;BME280;3780;42.424;25.636;2022-09-09T01:07:55;99363.16;;;17.92;nan
7478;BME280;3780;42.424;25.636;2022-09-09T01:10:51;99371.88;;;17.94;nan
7478;BME280;3780;42.424;25.636;2022-09-09T01:13:28;99389.16;;;18.03;nan
7478;BME280;3780;42.424;25.636;2022-09-09T01:15:59;99389.47;;;18.02;nan
7478;BME280;3780;42.424;25.636;2022-09-09T01:18:28;99378.16;;;17.95;nan
7478;BME280;3780;42.424;25.636;2022-09-09T01:23:40;99390.06;;;17.99;nan
7478;BME280;3780;42.424;25.636;2022-09-09T01:26:37;99392.69;;;17.90;nan
7478;BME280;3780;42.424;25.636;2022-09-09T01:29:07;99397.03;;;17.91;nan
7478;BME280;3780;42.424;25.636;2022-09-09T01:31:39;99373.75;;;17.80;nan
7478;BME280;3780;42.424;25.636;2022-09-09T01:34:14;99369.41;;;17.79;nan
7478;BME280;3780;42.424;25.636;2022-09-09T01:36:48;99355.28;;;17.77;nan
7478;BME280;3780;42.424;25.636;2022-09-09T01:39:16;99319.63;;;17.55;nan
7478;BME280;3780;42.424;25.636;2022-09-09T01:41:42;99280.19;;;17.33;nan
7478;BME280;3780;42.424;25.636;2022-09-09T01:44:08;99367.81;;;17.92;nan
7478;BME280;3780;42.424;25.636;2022-09-09T01:46:35;99327.22;;;17.58;nan
7478;BME280;3780;42.424;25.636;2022-09-09T01:49:02;99368.81;;;17.82;nan
7478;BME280;3780;42.424;25.636;2022-09-09T01:51:29;99331.25;;;17.60;nan
7478;BME280;3780;42.424;25.636;2022-09-09T01:53:55;99377.81;;;17.83;nan
7478;BME280;3780;42.424;25.636;2022-09-09T02:04:50;99308.69;;;17.41;nan
7478;BME280;3780;42.424;25.636;2022-09-09T02:12:36;99372.44;;;17.77;nan
7478;BME280;3780;42.424;25.636;2022-09-09T02:15:08;99346.19;;;17.63;nan
7478;BME280;3780;42.424;25.636;2022-09-09T02:17:40;99368.63;;;17.78;nan
7478;BME280;3780;42.424;25.636;2022-09-09T02:20:13;99320.03;;;17.48;nan
7478;BME280;3780;42.424;25.636;2022-09-09T02:22:41;99350.72;;;17.53;nan
7478;BME280;3780;42.424;25.636;2022-09-09T02:25:11;99294.69;;;17.15;nan
7478;BME280;3780;42.424;25.636;2022-09-09T02:27:40;99374.22;;;17.68;nan
7478;BME280;3780;42.424;25.636;2022-09-09T02:30:07;99376.06;;;17.73;nan
7478;BME280;3780;42.424;25.636;2022-09-09T02:32:35;99320.63;;;17.45;nan
7478;BME280;3780;42.424;25.636;2022-09-09T02:35:08;99369.06;;;17.67;nan
7478;BME280;3780;42.424;25.636;2022-09-09T02:37:37;99369.38;;;17.65;nan
7478;BME280;3780;42.424;25.636;2022-09-09T02:40:08;99301.44;;;17.17;nan
7478;BME280;3780;42.424;25.636;2022-09-09T02:42:39;99360.81;;;17.53;nan
7478;BME280;3780;42.424;25.636;2022-09-09T02:45:06;99316.91;;;17.22;nan
7478;BME280;3780;42.424;25.636;2022-09-09T02:47:40;99343.94;;;17.37;nan
7478;BME280;3780;42.424;25.636;2022-09-09T02:50:34;99366.69;;;17.46;nan
7478;BME280;3780;42.424;25.636;2022-09-09T02:53:08;99336.78;;;17.22;nan
7478;BME280;3780;42.424;25.636;2022-09-09T02:55:46;99315.97;;;17.13;nan
7478;BME280;3780;42.424;25.636;2022-09-09T02:58:16;99311.63;;;17.12;nan
7478;BME280;3780;42.424;25.636;2022-09-09T03:00:44;99352.31;;;17.41;nan
7478;BME280;3780;42.424;25.636;2022-09-09T03:03:11;99304.16;;;17.04;nan
7478;BME280;3780;42.424;25.636;2022-09-09T03:05:37;99290.69;;;16.93;nan
7478;BME280;3780;42.424;25.636;2022-09-09T03:08:04;99355.00;;;17.27;nan
7478;BME280;3780;42.424;25.636;2022-09-09T03:10:31;99352.13;;;17.18;nan
7478;BME280;3780;42.424;25.636;2022-09-09T03:12:57;99319.88;;;17.07;nan
7478;BME280;3780;42.424;25.636;2022-09-09T03:15:22;99358.03;;;17.26;nan
7478;BME280;3780;42.424;25.636;2022-09-09T03:17:48;99256.50;;;16.63;nan
7478;BME280;3780;42.424;25.636;2022-09-09T03:20:14;99347.00;;;17.17;nan
7478;BME280;3780;42.424;25.636;2022-09-09T03:22:39;99330.50;;;17.08;nan
7478;BME280;3780;42.424;25.636;2022-09-09T03:25:05;99322.84;;;16.91;nan
7478;BME280;3780;42.424;25.636;2022-09-09T03:27:31;99210.13;;;16.12;nan
7478;BME280;3780;42.424;25.636;2022-09-09T03:29:57;99331.97;;;16.82;nan
7478;BME280;3780;42.424;25.636;2022-09-09T03:32:23;99348.13;;;16.97;nan
7478;BME280;3780;42.424;25.636;2022-09-09T03:34:51;99375.66;;;17.14;nan
7478;BME280;3780;42.424;25.636;2022-09-09T03:37:17;99311.88;;;16.78;nan
7478;BME280;3780;42.424;25.636;2022-09-09T03:39:43;99313.84;;;16.72;nan
7478;BME280;3780;42.424;25.636;2022-09-09T03:42:11;99357.97;;;16.93;nan
7478;BME280;3780;42.424;25.636;2022-09-09T03:44:37;99304.44;;;16.64;nan
7478;BME280;3780;42.424;25.636;2022-09-09T03:47:03;99321.47;;;16.75;nan
7478;BME280;3780;42.424;25.636;2022-09-09T03:49:28;99380.34;;;17.09;nan
7478;BME280;3780;42.424;25.636;2022-09-09T03:51:55;99299.53;;;16.61;nan
7478;BME280;3780;42.424;25.636;2022-09-09T03:54:23;99364.16;;;16.99;nan
7478;BME280;3780;42.424;25.636;2022-09-09T03:56:48;99255.75;;;16.39;nan
7478;BME280;3780;42.424;25.636;2022-09-09T03:59:14;99357.91;;;16.98;nan
7478;BME280;3780;42.424;25.636;2022-09-09T04:01:39;99362.09;;;17.09;nan
7478;BME280;3780;42.424;25.636;2022-09-09T04:04:05;99374.25;;;17.17;nan
7478;BME280;3780;42.424;25.636;2022-09-09T04:06:31;99381.22;;;17.23;nan
7478;BME280;3780;42.424;25.636;2022-09-09T04:08:56;99381.53;;;17.21;nan
7478;BME280;3780;42.424;25.636;2022-09-09T04:11:22;99361.28;;;17.09;nan
7478;BME280;3780;42.424;25.636;2022-09-09T04:13:47;99354.38;;;16.98;nan
7478;BME280;3780;42.424;25.636;2022-09-09T04:16:13;99324.41;;;16.79;nan
7478;BME280;3780;42.424;25.636;2022-09-09T04:18:39;99369.59;;;17.17;nan
7478;BME280;3780;42.424;25.636;2022-09-09T04:21:05;99390.09;;;17.34;nan
7478;BME280;3780;42.424;25.636;2022-09-09T04:23:32;99378.88;;;17.35;nan
7478;BME280;3780;42.424;25.636;2022-09-09T04:25:59;99345.56;;;17.19;nan
7478;BME280;3780;42.424;25.636;2022-09-09T04:28:28;99399.59;;;17.69;nan
7478;BME280;3780;42.424;25.636;2022-09-09T04:30:54;99320.16;;;17.24;nan
7478;BME280;3780;42.424;25.636;2022-09-09T04:33:20;99347.50;;;17.51;nan
7478;BME280;3780;42.424;25.636;2022-09-09T04:35:48;99367.88;;;17.73;nan
7478;BME280;3780;42.424;25.636;2022-09-09T04:38:14;99392.06;;;17.93;nan
7478;BME280;3780;42.424;25.636;2022-09-09T04:40:43;99380.66;;;17.91;nan
7478;BME280;3780;42.424;25.636;2022-09-09T04:43:09;99325.09;;;17.55;nan
7478;BME280;3780;42.424;25.636;2022-09-09T04:45:35;99358.94;;;17.86;nan
7478;BME280;3780;42.424;25.636;2022-09-09T04:48:01;99359.44;;;17.88;nan
7478;BME280;3780;42.424;25.636;2022-09-09T04:50:27;99373.19;;;18.10;nan
7478;BME280;3780;42.424;25.636;2022-09-09T04:52:53;99361.16;;;18.12;nan
7478;BME280;3780;42.424;25.636;2022-09-09T04:55:19;99343.59;;;18.18;nan
7478;BME280;3780;42.424;25.636;2022-09-09T04:57:45;99388.06;;;18.59;nan
7478;BME280;3780;42.424;25.636;2022-09-09T05:00:11;99362.97;;;18.57;nan
7478;BME280;3780;42.424;25.636;2022-09-09T05:02:38;99383.50;;;18.82;nan
7478;BME280;3780;42.424;25.636;2022-09-09T05:05:05;99382.78;;;18.90;nan
7478;BME280;3780;42.424;25.636;2022-09-09T05:07:30;99342.31;;;18.79;nan
7478;BME280;3780;42.424;25.636;2022-09-09T05:09:56;99342.47;;;18.96;nan
7478;BME280;3780;42.424;25.636;2022-09-09T05:12:22;99350.31;;;19.11;nan
7478;BME280;3780;42.424;25.636;2022-09-09T05:14:49;99279.78;;;18.77;nan
7478;BME280;3780;42.424;25.636;2022-09-09T05:17:15;99340.94;;;19.26;nan
7478;BME280;3780;42.424;25.636;2022-09-09T05:19:41;99290.28;;;19.06;nan
7478;BME280;3780;42.424;25.636;2022-09-09T05:22:08;99299.16;;;19.12;nan
7478;BME280;3780;42.424;25.636;2022-09-09T05:24:33;99378.75;;;19.69;nan
7478;BME280;3780;42.424;25.636;2022-09-09T05:26:59;99282.75;;;19.12;nan
7478;BME280;3780;42.424;25.636;2022-09-09T05:29:27;99278.59;;;19.14;nan
7478;BME280;3780;42.424;25.636;2022-09-09T05:31:52;99356.78;;;19.60;nan
7478;BME280;3780;42.424;25.636;2022-09-09T05:34:18;99352.56;;;19.76;nan
7478;BME280;3780;42.424;25.636;2022-09-09T05:36:44;99359.41;;;19.96;nan
7478;BME280;3780;42.424;25.636;2022-09-09T05:39:10;99356.06;;;20.08;nan
7478;BME280;3780;42.424;25.636;2022-09-09T05:41:37;99371.78;;;20.25;nan
7478;BME280;3780;42.424;25.636;2022-09-09T05:44:02;99371.66;;;20.38;nan
7478;BME280;3780;42.424;25.636;2022-09-09T05:46:28;99346.50;;;20.36;nan
7478;BME280;3780;42.424;25.636;2022-09-09T05:48:54;99324.09;;;20.26;nan
7478;BME280;3780;42.424;25.636;2022-09-09T05:51:22;99392.56;;;20.74;nan
7478;BME280;3780;42.424;25.636;2022-09-09T05:53:50;99391.78;;;20.82;nan
7478;BME280;3780;42.424;25.636;2022-09-09T05:56:23;99400.81;;;20.91;nan
7478;BME280;3780;42.424;25.636;2022-09-09T05:58:50;99395.81;;;21.02;nan
7478;BME280;3780;42.424;25.636;2022-09-09T06:01:24;99369.53;;;20.92;nan
7478;BME280;3780;42.424;25.636;2022-09-09T06:03:51;99392.94;;;21.24;nan
7478;BME280;3780;42.424;25.636;2022-09-09T06:06:19;99328.38;;;20.92;nan
7478;BME280;3780;42.424;25.636;2022-09-09T06:08:54;99356.63;;;21.10;nan
7478;BME280;3780;42.424;25.636;2022-09-09T06:11:22;99397.50;;;21.29;nan
7478;BME280;3780;42.424;25.636;2022-09-09T06:13:48;99362.94;;;21.37;nan
7478;BME280;3780;42.424;25.636;2022-09-09T06:16:17;99362.59;;;21.56;nan
7478;BME280;3780;42.424;25.636;2022-09-09T06:18:43;99346.16;;;21.47;nan
7478;BME280;3780;42.424;25.636;2022-09-09T06:21:21;99394.94;;;22.05;nan
7478;BME280;3780;42.424;25.636;2022-09-09T06:23:47;99387.34;;;22.02;nan
7478;BME280;3780;42.424;25.636;2022-09-09T06:26:21;99365.69;;;22.01;nan
7478;BME280;3780;42.424;25.636;2022-09-09T06:28:49;99403.84;;;22.49;nan
7478;BME280;3780;42.424;25.636;2022-09-09T06:31:16;99415.63;;;22.88;nan
7478;BME280;3780;42.424;25.636;2022-09-09T06:33:43;99375.16;;;23.09;nan
7478;BME280;3780;42.424;25.636;2022-09-09T06:36:18;99399.41;;;23.37;nan
7478;BME280;3780;42.424;25.636;2022-09-09T06:38:44;99393.47;;;23.47;nan
7478;BME280;3780;42.424;25.636;2022-09-09T06:41:11;99403.78;;;23.71;nan
7478;BME280;3780;42.424;25.636;2022-09-09T06:43:37;99399.03;;;23.92;nan
7478;BME280;3780;42.424;25.636;2022-09-09T06:46:10;99405.03;;;24.06;nan
7478;BME280;3780;42.424;25.636;2022-09-09T06:48:36;99330.78;;;23.65;nan
7478;BME280;3780;42.424;25.636;2022-09-09T06:51:09;99343.06;;;23.13;nan
7478;BME280;3780;42.424;25.636;2022-09-09T06:53:37;99375.56;;;22.99;nan
7478;BME280;3780;42.424;25.636;2022-09-09T06:58:35;99408.50;;;22.87;nan
7478;BME280;3780;42.424;25.636;2022-09-09T07:01:07;99401.41;;;23.07;nan
7478;BME280;3780;42.424;25.636;2022-09-09T07:03:33;99364.91;;;22.68;nan
7478;BME280;3780;42.424;25.636;2022-09-09T07:05:59;99424.06;;;23.24;nan
7478;BME280;3780;42.424;25.636;2022-09-09T07:08:25;99350.91;;;23.23;nan
7478;BME280;3780;42.424;25.636;2022-09-09T07:10:52;99364.28;;;23.13;nan
7478;BME280;3780;42.424;25.636;2022-09-09T07:13:24;99397.72;;;23.65;nan
7478;BME280;3780;42.424;25.636;2022-09-09T07:15:51;99367.53;;;23.69;nan
7478;BME280;3780;42.424;25.636;2022-09-09T07:18:17;99356.09;;;24.03;nan
7478;BME280;3780;42.424;25.636;2022-09-09T07:20:43;99382.13;;;24.51;nan
7478;BME280;3780;42.424;25.636;2022-09-09T07:23:17;99316.84;;;24.19;nan
7478;BME280;3780;42.424;25.636;2022-09-09T07:25:46;99399.81;;;24.62;nan
7478;BME280;3780;42.424;25.636;2022-09-09T07:28:13;99349.56;;;24.08;nan
7478;BME280;3780;42.424;25.636;2022-09-09T07:30:38;99387.72;;;24.30;nan
7478;BME280;3780;42.424;25.636;2022-09-09T07:33:05;99366.56;;;24.22;nan
7478;BME280;3780;42.424;25.636;2022-09-09T07:35:31;99374.44;;;24.57;nan
7478;BME280;3780;42.424;25.636;2022-09-09T07:37:57;99400.16;;;24.36;nan
7478;BME280;3780;42.424;25.636;2022-09-09T07:40:24;99350.03;;;24.10;nan
7478;BME280;3780;42.424;25.636;2022-09-09T07:42:49;99386.94;;;24.54;nan
7478;BME280;3780;42.424;25.636;2022-09-09T07:45:15;99395.63;;;24.93;nan
7478;BME280;3780;42.424;25.636;2022-09-09T07:47:41;99412.19;;;25.17;nan
7478;BME280;3780;42.424;25.636;2022-09-09T07:50:08;99356.94;;;24.77;nan
7478;BME280;3780;42.424;25.636;2022-09-09T07:52:35;99381.03;;;24.92;nan
7478;BME280;3780;42.424;25.636;2022-09-09T07:55:00;99370.13;;;24.96;nan
7478;BME280;3780;42.424;25.636;2022-09-09T07:57:28;99426.06;;;25.61;nan
7478;BME280;3780;42.424;25.636;2022-09-09T07:59:56;99306.00;;;24.75;nan
7478;BME280;3780;42.424;25.636;2022-09-09T08:02:23;99330.22;;;25.06;nan
7478;BME280;3780;42.424;25.636;2022-09-09T08:04:48;99378.56;;;25.56;nan
7478;BME280;3780;42.424;25.636;2022-09-09T08:07:14;99347.09;;;25.88;nan
7478;BME280;3780;42.424;25.636;2022-09-09T08:09:41;99377.56;;;25.76;nan
7478;BME280;3780;42.424;25.636;2022-09-09T08:12:06;99355.91;;;25.94;nan
7478;BME280;3780;42.424;25.636;2022-09-09T08:14:33;99419.44;;;26.53;nan
7478;BME280;3780;42.424;25.636;2022-09-09T08:16:59;99360.19;;;26.54;nan
7478;BME280;3780;42.424;25.636;2022-09-09T08:19:24;99341.66;;;26.74;nan
7478;BME280;3780;42.424;25.636;2022-09-09T08:21:50;99399.31;;;27.42;nan
7478;BME280;3780;42.424;25.636;2022-09-09T08:24:16;99385.19;;;27.67;nan
7478;BME280;3780;42.424;25.636;2022-09-09T08:26:43;99407.34;;;28.28;nan
7478;BME280;3780;42.424;25.636;2022-09-09T08:29:11;99404.50;;;28.05;nan
7478;BME280;3780;42.424;25.636;2022-09-09T08:31:39;99355.53;;;27.29;nan
7478;BME280;3780;42.424;25.636;2022-09-09T08:34:06;99339.84;;;27.36;nan
7478;BME280;3780;42.424;25.636;2022-09-09T08:36:37;99399.50;;;27.92;nan
7478;BME280;3780;42.424;25.636;2022-09-09T08:39:04;99391.63;;;27.94;nan
7478;BME280;3780;42.424;25.636;2022-09-09T08:44:37;99367.59;;;28.47;nan
7478;BME280;3780;42.424;25.636;2022-09-09T08:53:02;99377.41;;;29.88;nan
7478;BME280;3780;42.424;25.636;2022-09-09T08:55:37;99367.69;;;30.12;nan
7478;BME280;3780;42.424;25.636;2022-09-09T08:58:19;99374.44;;;30.58;nan
7478;BME280;3780;42.424;25.636;2022-09-09T09:06:39;99347.22;;;30.89;nan
7478;BME280;3780;42.424;25.636;2022-09-09T09:09:46;99346.13;;;31.11;nan
7478;BME280;3780;42.424;25.636;2022-09-09T09:12:02;99352.88;;;31.14;nan
7478;BME280;3780;42.424;25.636;2022-09-09T09:14:34;99355.06;;;30.73;nan
7478;BME280;3780;42.424;25.636;2022-09-09T09:19:41;99334.41;;;30.77;nan
7478;BME280;3780;42.424;25.636;2022-09-09T09:22:22;99346.88;;;31.05;nan
7478;BME280;3780;42.424;25.636;2022-09-09T09:25:43;99325.47;;;30.50;nan
7478;BME280;3780;42.424;25.636;2022-09-09T09:28:01;99302.41;;;30.53;nan
7478;BME280;3780;42.424;25.636;2022-09-09T09:30:40;99344.69;;;31.50;nan
7478;BME280;3780;42.424;25.636;2022-09-09T09:35:45;99276.63;;;31.75;nan
7478;BME280;3780;42.424;25.636;2022-09-09T09:38:19;99319.28;;;32.40;nan
7478;BME280;3780;42.424;25.636;2022-09-09T09:40:53;99286.22;;;31.78;nan
7478;BME280;3780;42.424;25.636;2022-09-09T09:43:30;99320.78;;;32.77;nan
7478;BME280;3780;42.424;25.636;2022-09-09T09:45:56;99330.19;;;33.40;nan
7478;BME280;3780;42.424;25.636;2022-09-09T09:48:23;99331.31;;;33.53;nan
7478;BME280;3780;42.424;25.636;2022-09-09T09:50:55;99333.22;;;33.67;nan
7478;BME280;3780;42.424;25.636;2022-09-09T09:53:28;99307.38;;;34.08;nan
7478;BME280;3780;42.424;25.636;2022-09-09T09:56:00;99285.34;;;34.10;nan
7478;BME280;3780;42.424;25.636;2022-09-09T09:58:29;99214.28;;;33.96;nan
7478;BME280;3780;42.424;25.636;2022-09-09T10:00:56;99324.66;;;35.15;nan
7478;BME280;3780;42.424;25.636;2022-09-09T10:03:28;99292.38;;;34.70;nan
7478;BME280;3780;42.424;25.636;2022-09-09T10:05:54;99312.84;;;34.22;nan
7478;BME280;3780;42.424;25.636;2022-09-09T10:08:22;99304.69;;;33.93;nan
7478;BME280;3780;42.424;25.636;2022-09-09T10:19:04;99295.53;;;35.40;nan
7478;BME280;3780;42.424;25.636;2022-09-09T10:24:42;99302.09;;;35.57;nan
7478;BME280;3780;42.424;25.636;2022-09-09T10:29:57;99288.28;;;35.42;nan
7478;BME280;3780;42.424;25.636;2022-09-09T10:32:42;99291.97;;;35.63;nan
7478;BME280;3780;42.424;25.636;2022-09-09T10:40:33;99274.75;;;35.34;nan
7478;BME280;3780;42.424;25.636;2022-09-09T10:46:04;99275.63;;;36.32;nan
7478;BME280;3780;42.424;25.636;2022-09-09T10:54:52;99266.84;;;37.49;nan
7478;BME280;3780;42.424;25.636;2022-09-09T10:57:33;99257.06;;;36.77;nan
7478;BME280;3780;42.424;25.636;2022-09-09T11:00:14;99253.47;;;36.77;nan
7478;BME280;3780;42.424;25.636;2022-09-09T11:02:41;99230.94;;;37.00;nan
7478;BME280;3780;42.424;25.636;2022-09-09T11:05:20;99238.31;;;37.47;nan
7478;BME280;3780;42.424;25.636;2022-09-09T11:07:55;99249.66;;;38.08;nan
7478;BME280;3780;42.424;25.636;2022-09-09T11:10:41;99235.56;;;39.12;nan
7478;BME280;3780;42.424;25.636;2022-09-09T11:18:32;99189.03;;;39.16;nan
7478;BME280;3780;42.424;25.636;2022-09-09T11:21:02;99161.03;;;38.71;nan
7478;BME280;3780;42.424;25.636;2022-09-09T11:23:43;99218.81;;;37.56;nan
7478;BME280;3780;42.424;25.636;2022-09-09T11:26:24;99212.09;;;36.77;nan
7478;BME280;3780;42.424;25.636;2022-09-09T11:29:07;99221.22;;;37.21;nan
7478;BME280;3780;42.424;25.636;2022-09-09T11:34:56;99222.09;;;38.32;nan
7478;BME280;3780;42.424;25.636;2022-09-09T11:37:56;99203.94;;;39.42;nan
7478;BME280;3780;42.424;25.636;2022-09-09T11:40:27;99211.28;;;40.12;nan
7478;BME280;3780;42.424;25.636;2022-09-09T11:43:24;99210.00;;;40.48;nan
7478;BME280;3780;42.424;25.636;2022-09-09T11:45:57;99114.78;;;39.32;nan
7478;BME280;3780;42.424;25.636;2022-09-09T11:51:10;99195.81;;;39.44;nan
7478;BME280;3780;42.424;25.636;2022-09-09T11:53:56;99154.28;;;39.32;nan
7478;BME280;3780;42.424;25.636;2022-09-09T11:56:33;99190.34;;;38.44;nan
7478;BME280;3780;42.424;25.636;2022-09-09T11:59:05;99168.28;;;38.56;nan
7478;BME280;3780;42.424;25.636;2022-09-09T12:01:34;99185.44;;;39.16;nan
7478;BME280;3780;42.424;25.636;2022-09-09T12:04:26;99164.09;;;39.02;nan
7478;BME280;3780;42.424;25.636;2022-09-09T12:09:50;99160.63;;;39.23;nan
7478;BME280;3780;42.424;25.636;2022-09-09T12:12:21;99158.53;;;38.31;nan
7478;BME280;3780;42.424;25.636;2022-09-09T12:15:21;99161.19;;;37.93;22.08
7478;BME280;3780;42.424;25.636;2022-09-09T12:17:52;99139.09;;;38.62;21.28
7478;BME280;3780;42.424;25.636;2022-09-09T12:26:06;99159.59;;;39.30;19.82
7478;BME280;3780;42.424;25.636;2022-09-09T12:28:48;99109.44;;;38.58;20.75
7478;BME280;3780;42.424;25.636;2022-09-09T12:33:48;99123.03;;;38.34;21.52
7478;BME280;3780;42.424;25.636;2022-09-09T12:36:28;99143.44;;;39.05;20.83
7478;BME280;3780;42.424;25.636;2022-09-09T12:38:56;99068.34;;;39.46;19.58
7478;BME280;3780;42.424;25.636;2022-09-09T12:41:27;99074.25;;;39.95;18.97
7478;BME280;3780;42.424;25.636;2022-09-09T12:44:06;99116.75;;;39.70;19.42
7478;BME280;3780;42.424;25.636;2022-09-09T12:46:44;99111.88;;;39.70;20.43
7478;BME280;3780;42.424;25.636;2022-09-09T12:49:30;99120.09;;;39.04;20.84
7478;BME280;3780;42.424;25.636;2022-09-09T12:52:01;99049.59;;;38.53;20.81
7478;BME280;3780;42.424;25.636;2022-09-09T12:54:29;99113.16;;;37.84;22.28
7478;BME280;3780;42.424;25.636;2022-09-09T12:56:55;99106.25;;;37.56;22.16
7478;BME280;3780;42.424;25.636;2022-09-09T12:59:36;99103.44;;;37.23;22.34
7478;BME280;3780;42.424;25.636;2022-09-09T13:02:02;99080.09;;;36.38;23.75
7478;BME280;3780;42.424;25.636;2022-09-09T13:04:27;99049.00;;;35.89;24.46
7478;BME280;3780;42.424;25.636;2022-09-09T13:06:53;99053.69;;;35.52;23.94
7478;BME280;3780;42.424;25.636;2022-09-09T13:09:19;99091.63;;;35.60;24.97
7478;BME280;3780;42.424;25.636;2022-09-09T13:11:56;99029.66;;;35.04;24.88
7478;BME280;3780;42.424;25.636;2022-09-09T13:14:32;99078.94;;;35.29;25.01
7478;BME280;3780;42.424;25.636;2022-09-09T13:17:04;99014.13;;;33.88;25.79
7478;BME280;3780;42.424;25.636;2022-09-09T13:19:36;99069.78;;;34.13;26.04
7478;BME280;3780;42.424;25.636;2022-09-09T13:22:13;99076.91;;;33.87;26.98
7478;BME280;3780;42.424;25.636;2022-09-09T13:24:40;99057.69;;;33.48;26.66
7478;BME280;3780;42.424;25.636;2022-09-09T13:27:26;99074.16;;;33.39;26.82
7478;BME280;3780;42.424;25.636;2022-09-09T13:29:59;99072.59;;;33.31;27.62
7478;BME280;3780;42.424;25.636;2022-09-09T13:32:30;99053.81;;;33.31;26.98
7478;BME280;3780;42.424;25.636;2022-09-09T13:34:58;99053.97;;;33.13;27.76
7478;BME280;3780;42.424;25.636;2022-09-09T13:37:37;99068.88;;;33.00;27.49
7478;BME280;3780;42.424;25.636;2022-09-09T13:40:05;99060.69;;;32.64;28.00
7478;BME280;3780;42.424;25.636;2022-09-09T13:42:33;99011.88;;;32.17;28.29
7478;BME280;3780;42.424;25.636;2022-09-09T13:45:01;99044.56;;;32.23;29.17
7478;BME280;3780;42.424;25.636;2022-09-09T13:47:32;99068.84;;;32.37;28.76
7478;BME280;3780;42.424;25.636;2022-09-09T13:50:18;99018.66;;;32.23;28.68
7478;BME280;3780;42.424;25.636;2022-09-09T13:52:50;99052.63;;;32.87;28.06
7478;BME280;3780;42.424;25.636;2022-09-09T13:55:19;99058.25;;;32.73;28.84
7478;BME280;3780;42.424;25.636;2022-09-09T13:58:04;98972.63;;;31.75;29.04
7478;BME280;3780;42.424;25.636;2022-09-09T14:00:33;99039.31;;;32.36;28.45
7478;BME280;3780;42.424;25.636;2022-09-09T14:02:59;98967.00;;;31.90;29.40
7478;BME280;3780;42.424;25.636;2022-09-09T14:05:29;98993.91;;;32.25;29.09
7478;BME280;3780;42.424;25.636;2022-09-09T14:07:55;99025.38;;;32.36;28.65
7478;BME280;3780;42.424;25.636;2022-09-09T14:10:21;98977.75;;;31.91;29.96
7478;BME280;3780;42.424;25.636;2022-09-09T14:12:47;99016.00;;;31.91;30.38
7478;BME280;3780;42.424;25.636;2022-09-09T14:15:13;98991.38;;;31.75;30.68
7478;BME280;3780;42.424;25.636;2022-09-09T14:17:39;99024.81;;;31.75;30.64
7478;BME280;3780;42.424;25.636;2022-09-09T14:20:06;99034.84;;;31.51;30.44
7478;BME280;3780;42.424;25.636;2022-09-09T14:22:36;99034.06;;;31.11;30.88
7478;BME280;3780;42.424;25.636;2022-09-09T14:25:03;99010.19;;;30.85;30.45
7478;BME280;3780;42.424;25.636;2022-09-09T14:27:29;99013.78;;;31.07;30.79
7478;BME280;3780;42.424;25.636;2022-09-09T14:29:55;99014.19;;;31.27;31.47
7478;BME280;3780;42.424;25.636;2022-09-09T14:32:21;98920.25;;;30.63;31.80
7478;BME280;3780;42.424;25.636;2022-09-09T14:34:47;98958.44;;;30.95;32.66
7478;BME280;3780;42.424;25.636;2022-09-09T14:37:15;98979.13;;;31.15;31.88
7478;BME280;3780;42.424;25.636;2022-09-09T14:39:42;98954.88;;;30.95;30.15
7478;BME280;3780;42.424;25.636;2022-09-09T14:42:12;99001.81;;;31.17;31.03
7478;BME280;3780;42.424;25.636;2022-09-09T14:44:38;99003.81;;;31.13;31.12
7478;BME280;3780;42.424;25.636;2022-09-09T14:47:07;98975.56;;;31.08;30.89
7478;BME280;3780;42.424;25.636;2022-09-09T14:49:34;98933.00;;;30.82;32.10
7478;BME280;3780;42.424;25.636;2022-09-09T14:52:00;98997.03;;;31.14;32.28
7478;BME280;3780;42.424;25.636;2022-09-09T14:54:26;98898.38;;;30.30;31.33
7478;BME280;3780;42.424;25.636;2022-09-09T14:56:51;98993.09;;;30.80;31.62
7478;BME280;3780;42.424;25.636;2022-09-09T14:59:17;98950.47;;;30.44;32.75
7478;BME280;3780;42.424;25.636;2022-09-09T15:01:42;98953.63;;;30.35;33.69
7478;BME280;3780;42.424;25.636;2022-09-09T15:04:11;98962.38;;;30.23;32.42
7478;BME280;3780;42.424;25.636;2022-09-09T15:06:37;98990.63;;;30.28;33.62
7478;BME280;3780;42.424;25.636;2022-09-09T15:09:04;98937.25;;;29.98;33.02
7478;BME280;3780;42.424;25.636;2022-09-09T15:11:33;98942.38;;;29.85;34.61
7478;BME280;3780;42.424;25.636;2022-09-09T15:14:03;98961.47;;;29.90;33.71
7478;BME280;3780;42.424;25.636;2022-09-09T15:16:29;98994.06;;;29.97;35.31
7478;BME280;3780;42.424;25.636;2022-09-09T15:18:59;98993.25;;;29.89;35.05
7478;BME280;3780;42.424;25.636;2022-09-09T15:21:28;98994.00;;;29.83;36.34
7478;BME280;3780;42.424;25.636;2022-09-09T15:23:55;98894.38;;;29.12;36.14
7478;BME280;3780;42.424;25.636;2022-09-09T15:26:20;98946.91;;;29.38;35.98
7478;BME280;3780;42.424;25.636;2022-09-09T15:28:47;98946.88;;;29.35;36.29
7478;BME280;3780;42.424;25.636;2022-09-09T15:31:14;98997.44;;;29.55;36.92
7478;BME280;3780;42.424;25.636;2022-09-09T15:33:49;98983.84;;;29.42;36.99